createdAt,value
2019-01-25T00:00:07.222Z,37.20
2019-01-25T00:02:36.112Z,37.73
2019-01-25T00:05:05.094Z,36.73
2019-01-25T00:07:33.703Z,36.07
2019-01-25T00:10:02.337Z,38.43
2019-01-25T00:12:31.251Z,38.40
2019-01-25T00:15:00.204Z,37.53
2019-01-25T00:17:29.032Z,37.87
2019-01-25T00:19:57.658Z,36.70
2019-01-25T00:22:26.505Z,38.67
2019-01-25T00:24:55.127Z,37.33
2019-01-25T00:27:23.976Z,39.50
2019-01-25T00:29:52.589Z,34.93
2019-01-25T00:32:21.202Z,39.40
2019-01-25T00:34:50.129Z,37.17
2019-01-25T00:37:18.722Z,40.43
2019-01-25T00:39:47.342Z,41.23
2019-01-25T00:42:15.923Z,41.70
2019-01-25T00:44:44.538Z,40.20
2019-01-25T00:47:13.135Z,41.27
2019-01-25T00:49:41.747Z,41.17
2019-01-25T00:52:10.361Z,41.20
2019-01-25T00:54:38.992Z,40.67
2019-01-25T00:57:07.869Z,42.50
2019-01-25T00:59:36.479Z,40.53
2019-01-25T01:02:05.443Z,40.10
2019-01-25T01:04:34.438Z,39.27
2019-01-25T01:07:03.044Z,40.80
2019-01-25T01:09:31.669Z,38.47
2019-01-25T01:12:00.263Z,42.33
2019-01-25T01:14:28.874Z,38.87
2019-01-25T01:16:57.459Z,40.90
2019-01-25T01:19:26.075Z,42.83
2019-01-25T01:21:54.696Z,41.80
2019-01-25T01:24:23.599Z,38.77
2019-01-25T01:26:52.222Z,39.90
2019-01-25T01:29:21.176Z,41.97
2019-01-25T01:31:50.155Z,41.47
2019-01-25T01:34:18.760Z,39.47
2019-01-25T01:36:47.762Z,39.10
2019-01-25T01:39:16.728Z,37.83
2019-01-25T01:41:45.350Z,39.40
2019-01-25T01:44:13.955Z,38.90
2019-01-25T01:46:42.575Z,37.30
2019-01-25T01:49:11.458Z,37.60
2019-01-25T01:51:40.072Z,40.50
2019-01-25T01:54:08.856Z,38.50
2019-01-25T01:56:37.821Z,40.97
2019-01-25T01:59:06.707Z,39.70
2019-01-25T02:01:35.320Z,43.40
2019-01-25T02:04:03.950Z,38.90
2019-01-25T02:06:32.592Z,40.97
2019-01-25T02:09:01.210Z,40.23
2019-01-25T02:11:29.802Z,37.40
2019-01-25T02:13:58.710Z,42.30
2019-01-25T02:16:27.319Z,43.90
2019-01-25T02:18:55.937Z,41.13
2019-01-25T02:21:24.583Z,40.27
2019-01-25T02:23:53.546Z,39.53
2019-01-25T02:26:22.165Z,39.23
2019-01-25T02:28:50.769Z,40.77
2019-01-25T02:31:19.376Z,39.40
2019-01-25T02:33:47.977Z,37.80
2019-01-25T02:36:16.585Z,40.83
2019-01-25T02:38:45.542Z,39.03
2019-01-25T02:41:14.176Z,39.47
2019-01-25T02:43:42.765Z,40.30
2019-01-25T02:46:11.376Z,42.20
2019-01-25T02:48:40.330Z,39.33
2019-01-25T02:51:09.268Z,38.67
2019-01-25T02:53:38.159Z,39.30
2019-01-25T02:56:07.075Z,40.87
2019-01-25T02:58:35.656Z,41.07
2019-01-25T03:03:42.837Z,37.03
2019-01-25T03:06:11.447Z,37.23
2019-01-25T03:08:40.037Z,39.53
2019-01-25T03:11:08.667Z,40.17
2019-01-25T03:13:37.561Z,40.70
2019-01-25T03:16:06.176Z,37.50
2019-01-25T03:18:34.778Z,35.50
2019-01-25T03:21:05.008Z,39.03
2019-01-25T03:23:31.997Z,40.77
2019-01-25T03:26:00.627Z,41.97
2019-01-25T03:28:29.237Z,40.77
2019-01-25T03:30:58.144Z,41.70
2019-01-25T03:33:26.753Z,40.77
2019-01-25T03:35:55.417Z,37.90
2019-01-25T03:38:24.298Z,39.63
2019-01-25T03:40:55.143Z,39.80
2019-01-25T03:43:21.892Z,39.50
2019-01-25T03:45:50.513Z,39.13
2019-01-25T03:48:19.543Z,38.70
2019-01-25T03:50:48.454Z,41.43
2019-01-25T03:53:17.039Z,41.03
2019-01-25T03:55:45.672Z,41.50
2019-01-25T03:58:14.283Z,38.53
2019-01-25T04:00:43.168Z,38.57
2019-01-25T04:03:12.058Z,39.57
2019-01-25T04:05:40.691Z,40.17
2019-01-25T04:08:09.287Z,38.50
2019-01-25T04:10:37.889Z,44.10
2019-01-25T04:13:06.495Z,46.30
2019-01-25T04:15:35.100Z,45.17
2019-01-25T04:18:03.711Z,43.93
2019-01-25T04:20:32.320Z,44.97
2019-01-25T04:23:00.953Z,45.90
2019-01-25T04:25:29.895Z,46.73
2019-01-25T04:27:58.517Z,44.43
2019-01-25T04:30:27.149Z,45.03
2019-01-25T04:32:55.782Z,42.30
2019-01-25T04:35:24.395Z,44.90
2019-01-25T04:37:53.035Z,40.97
2019-01-25T04:40:22.011Z,42.17
2019-01-25T04:42:51.001Z,43.60
2019-01-25T04:45:19.636Z,41.77
2019-01-25T04:47:48.264Z,40.60
2019-01-25T04:50:19.934Z,41.73
2019-01-25T04:52:48.909Z,44.77
2019-01-25T04:55:26.868Z,45.30
2019-01-25T04:57:55.508Z,41.23
2019-01-25T05:00:24.125Z,44.37
2019-01-25T05:02:55.833Z,45.13
2019-01-25T05:05:24.816Z,40.50
2019-01-25T05:07:53.842Z,40.27
2019-01-25T05:10:22.458Z,44.90
2019-01-25T05:12:53.119Z,42.40
2019-01-25T05:15:19.724Z,42.50
2019-01-25T05:17:51.436Z,42.27
2019-01-25T05:20:20.043Z,44.43
2019-01-25T05:22:48.986Z,46.10
2019-01-25T05:25:17.617Z,41.90
2019-01-25T05:27:46.235Z,41.43
2019-01-25T05:30:14.847Z,44.43
2019-01-25T05:32:43.482Z,42.40
2019-01-25T05:35:12.397Z,44.07
2019-01-25T05:37:41.013Z,40.87
2019-01-25T05:40:09.648Z,42.77
2019-01-25T05:42:38.296Z,44.33
2019-01-25T05:45:10.159Z,42.57
2019-01-25T05:47:38.782Z,44.53
2019-01-25T05:50:07.679Z,46.30
2019-01-25T05:52:36.565Z,43.10
2019-01-25T05:55:06.246Z,42.43
2019-01-25T05:57:34.078Z,44.57
2019-01-25T06:00:02.967Z,45.23
2019-01-25T06:02:31.590Z,45.13
2019-01-25T06:05:00.214Z,43.83
2019-01-25T06:07:28.849Z,45.00
2019-01-25T06:09:57.456Z,43.97
2019-01-25T06:12:26.449Z,45.23
2019-01-25T06:14:55.046Z,45.53
2019-01-25T06:17:23.665Z,45.07
2019-01-25T06:19:52.275Z,44.73
2019-01-25T06:22:21.256Z,46.00
2019-01-25T06:24:50.171Z,43.20
2019-01-25T06:27:19.161Z,44.63
2019-01-25T06:29:47.771Z,44.60
2019-01-25T06:32:16.738Z,44.87
2019-01-25T06:34:45.628Z,42.47
2019-01-25T06:37:14.522Z,44.93
2019-01-25T06:39:43.398Z,46.53
2019-01-25T06:42:12.392Z,45.13
2019-01-25T06:44:41.002Z,44.53
2019-01-25T06:47:09.621Z,46.10
2019-01-25T06:49:38.226Z,44.87
2019-01-25T06:52:06.831Z,44.87
2019-01-25T06:54:35.430Z,42.03
2019-01-25T06:57:04.063Z,43.93
2019-01-25T06:59:32.976Z,46.20
2019-01-25T07:02:01.565Z,44.23
2019-01-25T07:04:30.340Z,46.87
2019-01-25T07:06:58.948Z,47.53
2019-01-25T07:09:27.822Z,45.93
2019-01-25T07:11:56.421Z,44.93
2019-01-25T07:14:25.029Z,47.23
2019-01-25T07:16:53.649Z,45.57
2019-01-25T07:19:22.268Z,45.80
2019-01-25T07:21:50.881Z,46.37
2019-01-25T07:24:19.504Z,46.60
2019-01-25T07:26:48.399Z,47.10
2019-01-25T07:29:17.301Z,45.53
2019-01-25T07:31:46.389Z,46.53
2019-01-25T07:34:14.483Z,44.10
2019-01-25T07:36:43.453Z,45.73
2019-01-25T07:41:50.653Z,43.83
2019-01-25T07:44:19.246Z,43.73
2019-01-25T07:46:48.216Z,46.67
2019-01-25T07:49:16.817Z,46.43
2019-01-25T07:51:45.440Z,46.73
2019-01-25T07:54:14.077Z,43.83
2019-01-25T07:56:42.676Z,44.53
2019-01-25T07:59:11.625Z,47.73
2019-01-25T08:01:40.240Z,46.07
2019-01-25T08:04:08.864Z,44.50
2019-01-25T08:06:37.478Z,44.10
2019-01-25T08:09:06.485Z,45.57
2019-01-25T08:11:35.061Z,46.20
2019-01-25T08:14:04.061Z,45.07
2019-01-25T08:16:32.935Z,45.63
2019-01-25T08:19:01.538Z,46.70
2019-01-25T08:21:30.141Z,46.80
2019-01-25T08:23:58.763Z,45.20
2019-01-25T08:26:27.365Z,47.73
2019-01-25T08:28:56.235Z,45.70
2019-01-25T08:31:24.845Z,45.50
2019-01-25T08:33:53.460Z,44.43
2019-01-25T08:36:22.113Z,46.50
2019-01-25T08:38:50.693Z,45.57
2019-01-25T08:41:19.559Z,45.37
2019-01-25T08:43:48.185Z,46.27
2019-01-25T08:46:16.781Z,44.77
2019-01-25T08:48:45.393Z,43.60
2019-01-25T08:51:14.101Z,43.27
2019-01-25T08:53:42.715Z,44.43
2019-01-25T08:56:11.655Z,44.97
2019-01-25T08:58:40.883Z,44.33
2019-01-25T09:01:09.495Z,44.77
2019-01-25T09:03:38.119Z,46.23
2019-01-25T09:06:06.738Z,45.20
2019-01-25T09:08:35.338Z,45.17
2019-01-25T09:11:04.271Z,44.33
2019-01-25T09:13:33.263Z,43.77
2019-01-25T09:16:02.304Z,43.70
2019-01-25T09:18:30.913Z,45.40
2019-01-25T09:20:59.855Z,43.10
2019-01-25T09:23:28.818Z,44.90
2019-01-25T09:26:01.131Z,42.73
2019-01-25T09:28:26.318Z,45.60
2019-01-25T09:30:54.942Z,44.80
2019-01-25T09:33:23.563Z,44.77
2019-01-25T09:35:52.171Z,45.33
2019-01-25T09:38:20.784Z,43.97
2019-01-25T09:40:49.397Z,43.80
2019-01-25T09:43:17.991Z,41.80
2019-01-25T09:45:46.616Z,43.73
2019-01-25T09:48:15.555Z,41.10
2019-01-25T09:50:44.180Z,45.00
2019-01-25T09:53:12.792Z,42.27
2019-01-25T09:55:41.708Z,40.47
2019-01-25T09:58:10.372Z,39.97
2019-01-25T10:00:39.020Z,41.30
2019-01-25T10:03:07.967Z,41.13
2019-01-25T10:05:36.954Z,39.87
2019-01-25T10:08:05.546Z,40.23
2019-01-25T10:10:34.166Z,42.47
2019-01-25T10:13:02.805Z,40.37
2019-01-25T10:15:31.789Z,39.27
2019-01-25T10:18:00.380Z,36.57
2019-01-25T10:20:29.107Z,39.63
2019-01-25T10:22:57.713Z,37.93
2019-01-25T10:25:26.345Z,40.77
2019-01-25T10:27:54.949Z,39.70
2019-01-25T10:30:23.898Z,38.87
2019-01-25T10:32:52.778Z,36.83
2019-01-25T10:35:21.782Z,36.67
2019-01-25T10:37:50.402Z,36.43
2019-01-25T10:40:21.830Z,36.00
2019-01-25T10:42:53.242Z,37.07
2019-01-25T10:48:09.495Z,35.80
2019-01-25T10:50:38.459Z,38.33
2019-01-25T10:53:07.448Z,37.20
2019-01-25T10:55:36.075Z,36.43
2019-01-25T10:58:05.025Z,35.83
2019-01-25T11:00:33.683Z,39.40
2019-01-25T11:03:02.588Z,32.73
2019-01-25T11:05:31.580Z,38.77
2019-01-25T11:08:00.469Z,35.53
2019-01-25T11:10:29.130Z,34.00
2019-01-25T11:13:00.978Z,33.53
2019-01-25T11:15:26.371Z,36.77
2019-01-25T11:17:54.970Z,36.87
2019-01-25T11:20:23.627Z,34.00
2019-01-25T11:22:52.269Z,33.97
2019-01-25T11:25:29.654Z,34.13
2019-01-25T11:27:58.255Z,32.13
2019-01-25T11:30:26.893Z,33.13
2019-01-25T11:32:55.824Z,31.97
2019-01-25T11:35:24.452Z,32.73
2019-01-25T11:37:53.054Z,33.27
2019-01-25T11:40:21.961Z,33.57
2019-01-25T11:42:50.576Z,33.73
2019-01-25T11:45:19.563Z,32.23
2019-01-25T11:47:48.516Z,31.23
2019-01-25T11:52:55.678Z,31.50
2019-01-25T11:55:24.289Z,32.60
2019-01-25T11:57:52.890Z,33.67
2019-01-25T12:03:00.451Z,31.43
2019-01-25T12:05:29.067Z,33.67
2019-01-25T12:07:57.957Z,33.83
2019-01-25T12:10:29.613Z,35.27
2019-01-25T12:12:58.221Z,32.17
2019-01-25T12:15:26.836Z,32.57
2019-01-25T12:17:55.762Z,33.17
2019-01-25T12:23:02.948Z,34.40
2019-01-25T12:25:31.849Z,32.43
2019-01-25T12:28:05.210Z,33.13
2019-01-25T12:30:37.905Z,34.43
2019-01-25T12:33:04.142Z,33.60
2019-01-25T12:35:38.985Z,35.17
2019-01-25T12:38:07.595Z,35.83
2019-01-25T12:40:36.202Z,35.80
2019-01-25T12:43:04.821Z,36.77
2019-01-25T12:45:33.432Z,36.90
2019-01-25T12:48:02.034Z,34.23
2019-01-25T12:50:36.662Z,35.47
2019-01-25T12:53:05.596Z,34.43
2019-01-25T12:55:34.220Z,33.30
2019-01-25T12:58:03.212Z,33.33
2019-01-25T13:00:31.843Z,30.57
2019-01-25T13:03:00.422Z,28.73
2019-01-25T13:05:29.056Z,30.57
2019-01-25T13:07:57.645Z,29.00
2019-01-25T13:10:26.591Z,32.20
2019-01-25T13:12:55.185Z,32.87
2019-01-25T13:15:23.808Z,34.00
2019-01-25T13:17:52.414Z,30.77
2019-01-25T13:20:30.432Z,31.07
2019-01-25T13:22:59.071Z,32.37
2019-01-25T13:25:27.678Z,31.23
2019-01-25T13:27:56.611Z,30.20
2019-01-25T13:30:28.505Z,28.37
2019-01-25T13:32:57.123Z,29.97
2019-01-25T13:35:25.714Z,31.67
2019-01-25T13:37:54.605Z,31.47
2019-01-25T13:40:23.597Z,30.13
2019-01-25T13:42:52.585Z,29.63
2019-01-25T13:45:21.303Z,29.80
2019-01-25T13:47:49.915Z,27.53
2019-01-25T13:50:27.886Z,25.93
2019-01-25T13:52:56.842Z,22.97
2019-01-25T13:55:25.838Z,24.70
2019-01-25T13:57:54.455Z,24.07
2019-01-25T14:00:29.083Z,24.60
2019-01-25T14:02:57.687Z,24.00
2019-01-25T14:05:26.609Z,22.80
2019-01-25T14:07:55.246Z,23.23
2019-01-25T14:10:27.099Z,23.03
2019-01-25T14:12:56.043Z,23.57
2019-01-25T14:15:24.648Z,23.73
2019-01-25T14:17:53.638Z,23.07
2019-01-25T14:20:23.478Z,24.07
2019-01-25T14:22:50.918Z,23.30
2019-01-25T14:25:19.521Z,23.03
2019-01-25T14:27:48.451Z,23.30
2019-01-25T14:33:07.874Z,23.63
2019-01-25T14:35:36.829Z,23.80
2019-01-25T14:38:05.813Z,23.60
2019-01-25T14:40:34.466Z,23.60
2019-01-25T14:43:03.388Z,22.87
2019-01-25T14:45:32.410Z,23.07
2019-01-25T14:48:01.047Z,23.77
2019-01-25T14:50:29.671Z,23.83
2019-01-25T14:52:58.341Z,23.53
2019-01-25T14:55:26.998Z,22.57
2019-01-25T14:57:55.634Z,22.87
2019-01-25T15:00:24.232Z,24.77
2019-01-25T15:02:53.183Z,24.00
2019-01-25T15:05:21.831Z,24.97
2019-01-25T15:07:50.463Z,26.03
2019-01-25T15:10:19.109Z,30.43
2019-01-25T15:12:47.736Z,26.90
2019-01-25T15:15:16.356Z,26.53
2019-01-25T15:17:45.270Z,31.37
2019-01-25T15:20:13.903Z,30.20
2019-01-25T15:22:42.844Z,28.53
2019-01-25T15:25:11.724Z,49.90
2019-01-25T15:27:40.339Z,29.20
2019-01-25T15:30:09.307Z,33.67
2019-01-25T15:32:37.913Z,26.33
2019-01-25T15:35:06.546Z,27.80
2019-01-25T15:37:35.182Z,26.67
2019-01-25T15:40:04.138Z,28.03
2019-01-25T15:42:32.760Z,27.73
2019-01-25T15:45:01.368Z,24.43
2019-01-25T15:47:30.295Z,30.17
2019-01-25T15:49:58.915Z,30.23
2019-01-25T15:52:27.884Z,27.23
2019-01-25T15:54:56.511Z,26.70
2019-01-25T15:57:25.130Z,54.43
2019-01-25T15:59:53.737Z,40.37
2019-01-25T16:02:22.704Z,30.47
2019-01-25T16:04:51.329Z,29.07
2019-01-25T16:07:19.946Z,25.53
2019-01-25T16:09:48.552Z,24.87
2019-01-25T16:12:17.184Z,29.53
2019-01-25T16:14:46.225Z,25.90
2019-01-25T16:17:14.864Z,23.67
2019-01-25T16:19:43.806Z,22.90
2019-01-25T16:22:12.466Z,22.83
2019-01-25T16:27:29.233Z,22.13
2019-01-25T16:29:58.199Z,23.97
2019-01-25T16:32:27.200Z,24.37
2019-01-25T16:34:55.818Z,23.70
2019-01-25T16:37:24.758Z,22.87
2019-01-25T16:39:53.378Z,27.83
2019-01-25T16:42:23.352Z,27.73
2019-01-25T16:44:51.959Z,26.33
2019-01-25T16:47:20.924Z,23.50
2019-01-25T16:49:49.839Z,24.70
2019-01-25T16:52:18.499Z,26.57
2019-01-25T16:54:47.390Z,22.10
2019-01-25T16:57:16.023Z,21.63
2019-01-25T16:59:44.632Z,21.50
2019-01-25T17:02:13.257Z,22.03
2019-01-25T17:04:41.891Z,19.77
2019-01-25T17:07:10.821Z,20.37
2019-01-25T17:09:39.719Z,23.53
2019-01-25T17:12:08.686Z,50.53
2019-01-25T17:14:37.290Z,28.70
2019-01-25T17:17:05.943Z,23.50
2019-01-25T17:19:34.519Z,20.07
2019-01-25T17:22:03.407Z,19.10
2019-01-25T17:24:32.330Z,18.70
2019-01-25T17:27:00.951Z,18.90
2019-01-25T17:29:29.570Z,18.23
2019-01-25T17:31:58.564Z,17.97
2019-01-25T17:34:27.197Z,17.03
2019-01-25T17:36:56.149Z,15.60
2019-01-25T17:39:25.014Z,16.50
2019-01-25T17:41:53.916Z,15.97
2019-01-25T17:44:22.542Z,15.67
2019-01-25T17:46:51.160Z,15.13
2019-01-25T17:49:19.798Z,15.87
2019-01-25T17:51:48.404Z,17.03
2019-01-25T17:54:17.125Z,13.87
2019-01-25T17:56:45.736Z,14.47
2019-01-25T17:59:15.402Z,14.07
2019-01-25T18:04:38.400Z,14.87
2019-01-25T18:07:07.004Z,14.03
2019-01-25T18:09:35.622Z,15.27
2019-01-25T18:12:04.242Z,13.37
2019-01-25T18:14:33.223Z,14.43
2019-01-25T18:17:01.821Z,13.47
2019-01-25T18:19:30.441Z,14.57
2019-01-25T18:24:37.920Z,13.13
2019-01-25T18:27:06.540Z,13.83
2019-01-25T18:29:35.459Z,14.80
2019-01-25T18:32:04.094Z,14.77
2019-01-25T18:34:32.727Z,14.93
2019-01-25T18:37:01.338Z,15.40
2019-01-25T18:39:29.957Z,13.93
2019-01-25T18:44:37.434Z,15.23
2019-01-25T18:47:06.013Z,14.80
2019-01-25T18:49:34.619Z,15.53
2019-01-25T18:52:03.545Z,14.70
2019-01-25T18:54:32.537Z,15.33
2019-01-25T18:57:01.150Z,14.57
2019-01-25T18:59:29.772Z,15.10
2019-01-25T19:04:37.258Z,14.93
2019-01-25T19:07:05.861Z,15.73
2019-01-25T19:09:34.491Z,14.53
2019-01-25T19:12:03.115Z,14.07
2019-01-25T19:14:31.751Z,15.13
2019-01-25T19:17:00.357Z,13.87
2019-01-25T19:19:29.310Z,14.23
2019-01-25T19:21:57.909Z,14.57
2019-01-25T19:24:26.885Z,15.37
2019-01-25T19:26:55.486Z,15.07
2019-01-25T19:29:24.121Z,15.00
2019-01-25T19:31:53.030Z,15.53
2019-01-25T19:34:21.932Z,14.83
2019-01-25T19:36:50.543Z,15.47
2019-01-25T19:39:19.496Z,15.03
2019-01-25T19:41:48.090Z,14.47
2019-01-25T19:44:16.705Z,14.37
2019-01-25T19:46:45.311Z,15.63
2019-01-25T19:49:14.223Z,14.63
2019-01-25T19:51:43.113Z,15.07
2019-01-25T19:54:11.748Z,15.60
2019-01-25T19:56:40.688Z,16.43
2019-01-25T19:59:09.683Z,15.50
2019-01-25T20:01:38.674Z,16.93
2019-01-25T20:04:07.296Z,16.07
2019-01-25T20:06:35.916Z,16.93
2019-01-25T20:09:04.792Z,15.93
2019-01-25T20:11:33.374Z,14.80
2019-01-25T20:14:02.299Z,15.13
2019-01-25T20:16:31.183Z,16.87
2019-01-25T20:18:59.816Z,16.43
2019-01-25T20:21:28.873Z,16.57
2019-01-25T20:23:57.851Z,15.83
2019-01-25T20:26:26.535Z,17.00
2019-01-25T20:28:55.146Z,15.80
2019-01-25T20:31:23.796Z,16.53
2019-01-25T20:33:52.912Z,16.73
2019-01-25T20:36:21.532Z,16.67
2019-01-25T20:38:50.565Z,18.17
2019-01-25T20:41:19.176Z,16.93
2019-01-25T20:43:47.870Z,17.40
2019-01-25T20:46:16.442Z,18.50
2019-01-25T20:48:45.067Z,17.23
2019-01-25T20:51:13.681Z,18.23
2019-01-25T20:53:42.306Z,19.47
2019-01-25T20:56:11.251Z,18.97
2019-01-25T20:58:40.144Z,18.53
2019-01-25T21:01:09.033Z,18.87
2019-01-25T21:03:37.649Z,19.47
2019-01-25T21:06:06.270Z,19.50
2019-01-25T21:08:34.877Z,22.40
2019-01-25T21:11:03.485Z,22.93
2019-01-25T21:13:32.454Z,21.93
2019-01-25T21:16:01.088Z,20.40
2019-01-25T21:18:29.709Z,23.40
2019-01-25T21:20:58.378Z,21.20
2019-01-25T21:23:27.297Z,22.10
2019-01-25T21:25:55.906Z,23.07
2019-01-25T21:28:24.861Z,25.13
2019-01-25T21:30:53.506Z,23.50
2019-01-25T21:33:22.111Z,24.50
2019-01-25T21:35:50.729Z,22.57
2019-01-25T21:38:19.335Z,23.67
2019-01-25T21:43:26.483Z,25.50
2019-01-25T21:45:55.096Z,25.50
2019-01-25T21:48:24.093Z,24.93
2019-01-25T21:50:52.676Z,25.00
2019-01-25T21:53:21.629Z,24.63
2019-01-25T21:55:50.258Z,24.23
2019-01-25T21:58:18.876Z,24.63
2019-01-25T22:00:47.511Z,24.37
2019-01-25T22:03:16.121Z,25.17
2019-01-25T22:05:45.055Z,23.00
2019-01-25T22:08:13.950Z,22.13
2019-01-25T22:10:43.927Z,22.23
2019-01-25T22:13:11.220Z,19.90
2019-01-25T22:15:39.902Z,22.40
2019-01-25T22:18:08.515Z,20.37
2019-01-25T22:20:37.136Z,21.17
2019-01-25T22:23:06.045Z,19.87
2019-01-25T22:25:34.663Z,21.57
2019-01-25T22:28:03.623Z,20.53
2019-01-25T22:30:32.617Z,20.10
2019-01-25T22:33:01.244Z,18.90
2019-01-25T22:35:30.201Z,18.47
2019-01-25T22:37:58.840Z,17.67
2019-01-25T22:40:27.473Z,17.27
2019-01-25T22:42:56.131Z,17.47
2019-01-25T22:48:03.663Z,16.47
2019-01-25T22:50:32.301Z,15.80
2019-01-25T22:53:01.203Z,16.23
2019-01-25T22:55:30.082Z,16.17
2019-01-25T22:57:58.685Z,15.47
2019-01-25T23:03:06.177Z,15.77
2019-01-25T23:08:28.408Z,15.10
2019-01-25T23:10:57.315Z,15.73
2019-01-25T23:13:26.204Z,15.00
2019-01-25T23:15:55.053Z,14.40
2019-01-25T23:18:23.663Z,16.00
2019-01-25T23:20:52.298Z,15.33
2019-01-25T23:23:20.892Z,14.97
2019-01-25T23:25:49.827Z,13.93
2019-01-25T23:28:18.720Z,14.80
2019-01-25T23:30:47.326Z,14.60
2019-01-25T23:33:15.931Z,13.60
2019-01-25T23:35:44.539Z,13.43
2019-01-25T23:38:13.148Z,14.60
2019-01-25T23:40:41.776Z,13.13
2019-01-25T23:43:10.717Z,13.60
2019-01-25T23:45:39.360Z,13.00
2019-01-25T23:48:07.945Z,13.53
2019-01-25T23:50:36.666Z,12.70
2019-01-25T23:53:05.260Z,14.53
2019-01-25T23:55:33.890Z,13.60
2019-01-25T23:58:02.480Z,13.00
